createdAt,value
2022-12-23T00:06:49.372Z,3.33
2022-12-23T00:16:49.490Z,3.33
2022-12-23T00:26:49.371Z,3.33
2022-12-23T00:36:49.377Z,3.33
2022-12-23T00:46:49.347Z,3.33
2022-12-23T00:56:49.385Z,3.33
2022-12-23T01:06:49.349Z,2.96
2022-12-23T01:16:49.443Z,2.96
2022-12-23T01:26:49.357Z,2.96
2022-12-23T01:36:49.401Z,2.96
2022-12-23T01:46:49.337Z,2.96
2022-12-23T01:56:49.404Z,2.96
2022-12-23T02:06:49.350Z,2.96
2022-12-23T02:16:49.448Z,2.96
2022-12-23T02:26:49.372Z,2.96
2022-12-23T02:36:49.403Z,2.96
2022-12-23T02:46:49.347Z,2.96
2022-12-23T02:56:49.379Z,2.96
2022-12-23T03:06:49.383Z,2.96
2022-12-23T03:16:49.379Z,2.96
2022-12-23T03:26:49.375Z,2.96
2022-12-23T03:36:49.402Z,2.96
2022-12-23T03:46:49.440Z,2.96
2022-12-23T03:56:49.381Z,2.96
2022-12-23T04:06:49.374Z,2.96
2022-12-23T04:16:49.382Z,2.96
2022-12-23T04:26:49.381Z,2.96
2022-12-23T04:36:49.391Z,2.96
2022-12-23T04:46:49.427Z,2.96
2022-12-23T04:56:49.386Z,2.59
2022-12-23T05:06:49.385Z,2.59
2022-12-23T05:16:49.498Z,2.2199999999999998
2022-12-23T05:26:52.905Z,1.85
2022-12-23T05:36:49.450Z,1.85
2022-12-23T05:46:49.359Z,1.48
2022-12-23T05:56:49.381Z,1.48
2022-12-23T06:06:49.374Z,1.48
2022-12-23T06:16:49.459Z,1.48
2022-12-23T06:26:53.440Z,1.48
2022-12-23T06:36:49.394Z,1.48
2022-12-23T06:46:49.359Z,1.48
2022-12-23T06:56:49.404Z,1.48
2022-12-23T07:06:49.376Z,1.1099999999999999
2022-12-23T07:16:49.430Z,1.1099999999999999
2022-12-23T07:26:49.356Z,1.1099999999999999
2022-12-23T07:36:49.495Z,1.1099999999999999
2022-12-23T07:46:49.415Z,1.1099999999999999
2022-12-23T07:56:49.399Z,1.1099999999999999
2022-12-23T08:06:49.388Z,1.1099999999999999
2022-12-23T08:16:49.475Z,1.1099999999999999
2022-12-23T08:26:49.360Z,1.1099999999999999
2022-12-23T08:36:49.383Z,1.1099999999999999
2022-12-23T08:46:49.520Z,1.1099999999999999
2022-12-23T08:56:49.392Z,1.1099999999999999
2022-12-23T09:06:49.397Z,1.1099999999999999
2022-12-23T09:16:49.388Z,1.1099999999999999
2022-12-23T09:26:49.356Z,1.1099999999999999
2022-12-23T09:36:55.007Z,1.1099999999999999
2022-12-23T09:46:49.498Z,1.1099999999999999
2022-12-23T09:56:49.384Z,1.1099999999999999
2022-12-23T10:06:49.380Z,1.1099999999999999
2022-12-23T10:16:49.407Z,1.1099999999999999
2022-12-23T10:26:49.376Z,1.1099999999999999
2022-12-23T10:36:49.572Z,1.1099999999999999
2022-12-23T10:46:49.457Z,1.1099999999999999
2022-12-23T10:56:49.444Z,1.1099999999999999
2022-12-23T11:06:52.884Z,1.1099999999999999
2022-12-23T11:16:49.450Z,1.48
2022-12-23T11:26:49.407Z,1.48
2022-12-23T11:36:53.040Z,1.48
2022-12-23T11:46:49.390Z,1.85
2022-12-23T11:56:49.435Z,1.85
2022-12-23T12:06:54.286Z,2.2199999999999998
2022-12-23T12:16:49.497Z,2.2199999999999998
2022-12-23T12:26:49.389Z,2.2199999999999998
2022-12-23T12:36:49.438Z,2.59
2022-12-23T12:46:49.385Z,2.59
2022-12-23T12:56:49.417Z,2.96
2022-12-23T13:06:49.389Z,3.33
2022-12-23T13:16:49.547Z,3.33
2022-12-23T13:26:49.368Z,3.33
2022-12-23T13:36:49.563Z,3.33
2022-12-23T13:46:49.469Z,3.33
2022-12-23T13:56:49.407Z,3.7
2022-12-23T14:06:49.387Z,3.7
2022-12-23T14:16:49.525Z,3.7
2022-12-23T14:26:49.378Z,3.7
2022-12-23T14:36:49.459Z,3.7
2022-12-23T14:46:49.485Z,3.7
2022-12-23T14:56:49.426Z,4.07
2022-12-23T15:06:49.389Z,4.07
2022-12-23T15:16:49.506Z,4.07
2022-12-23T15:27:03.545Z,4.07
2022-12-23T15:36:49.469Z,4.07
2022-12-23T15:46:49.426Z,4.07
2022-12-23T15:56:49.428Z,4.07
2022-12-23T16:06:49.379Z,4.07
2022-12-23T16:16:49.514Z,4.07
2022-12-23T16:26:49.379Z,4.07
2022-12-23T16:36:49.484Z,4.07
2022-12-23T16:46:49.599Z,4.07
2022-12-23T16:56:49.414Z,4.07
2022-12-23T17:06:49.374Z,4.07
2022-12-23T17:16:49.546Z,4.07
2022-12-23T17:26:49.399Z,4.07
2022-12-23T17:36:50.514Z,4.07
2022-12-23T17:46:49.418Z,4.07
2022-12-23T17:56:49.438Z,4.07
2022-12-23T18:06:49.393Z,4.07
2022-12-23T18:16:49.488Z,4.07
2022-12-23T18:26:49.429Z,4.07
2022-12-23T18:36:49.486Z,4.07
2022-12-23T18:46:49.649Z,4.07
2022-12-23T18:56:49.436Z,4.07
2022-12-23T19:06:49.384Z,3.7
2022-12-23T19:16:52.150Z,3.7
2022-12-23T19:26:49.398Z,3.7
2022-12-23T19:36:49.441Z,3.7
2022-12-23T19:46:49.513Z,3.7
2022-12-23T19:56:49.415Z,3.7
2022-12-23T20:06:49.472Z,3.33
2022-12-23T20:16:49.656Z,3.33
2022-12-23T20:26:49.376Z,3.33
2022-12-23T20:36:49.439Z,3.33
2022-12-23T20:46:49.400Z,3.33
2022-12-23T20:56:49.376Z,3.33
2022-12-23T21:06:49.373Z,2.96
2022-12-23T21:16:49.506Z,2.96
2022-12-23T21:26:55.363Z,2.96
2022-12-23T21:36:49.430Z,2.96
2022-12-23T21:46:49.449Z,2.96
2022-12-23T21:56:49.407Z,2.96
2022-12-23T22:06:49.378Z,2.96
2022-12-23T22:16:49.467Z,2.96
2022-12-23T22:26:49.394Z,2.96
2022-12-23T22:36:49.476Z,2.96
2022-12-23T22:46:49.418Z,2.96
2022-12-23T22:56:49.415Z,2.96
2022-12-23T23:06:49.407Z,2.96
2022-12-23T23:16:49.536Z,2.96
2022-12-23T23:26:49.394Z,2.96
2022-12-23T23:36:49.513Z,2.96
2022-12-23T23:46:49.412Z,2.96
2022-12-23T23:56:49.424Z,2.96
